Time;durP1;ratioP1;P1;durP2;ratioP2;P2;SDS_P1;SDS_P2;PMS_P1;PMS_P2;Temp;Humidity;BMP_temperature;BMP_pressure;BME280_temperature;BME280_humidity;BME280_pressure;Samples;Min_cycle;Max_cycle;Signal;HPM_P1;HPM_P2
2022/03/12 00:01:54;;;;;;;0.20;0.10;;;;;;;-0.01;45.81;96167.19;5132258;28;20419;-56
2022/03/12 00:04:26;;;;;;;0.20;0.20;;;;;;;-0.27;45.62;96169.44;5131304;27;20434;-57
2022/03/12 00:06:55;;;;;;;0.20;0.10;;;;;;;-0.56;46.52;96174.69;5133898;27;20490;-57
2022/03/12 00:09:24;;;;;;;0.30;0.20;;;;;;;-0.33;46.30;96164.16;5136398;27;20434;-57
2022/03/12 00:11:56;;;;;;;1.90;1.80;;;;;;;-0.32;45.37;96168.38;5136131;27;20454;-59
2022/03/12 00:14:25;;;;;;;0.30;0.30;;;;;;;-1.40;46.25;96064.00;5136354;27;20479;-58
2022/03/12 00:16:54;;;;;;;0.20;0.20;;;;;;;-0.40;45.20;96163.25;5136682;27;20503;-59
2022/03/12 00:19:25;;;;;;;0.20;0.10;;;;;;;-0.82;45.32;96161.28;5135805;27;20664;-57
2022/03/12 00:21:55;;;;;;;0.20;0.20;;;;;;;-1.02;45.61;96175.78;5136499;27;20454;-57
2022/03/12 00:24:24;;;;;;;0.20;0.20;;;;;;;-1.02;45.74;96174.00;5136540;27;20500;-57
2022/03/12 00:26:53;;;;;;;0.30;0.20;;;;;;;-1.12;46.72;96177.84;5135733;27;21180;-57
2022/03/12 00:29:22;;;;;;;0.20;0.20;;;;;;;-0.84;45.72;96171.88;5136106;27;20423;-58
2022/03/12 00:31:53;;;;;;;1.27;1.27;;;;;;;-0.84;45.59;96168.47;5134901;27;20422;-58
2022/03/12 00:34:22;;;;;;;0.20;0.20;;;;;;;-1.18;46.45;96168.94;5135908;27;20435;-57
2022/03/12 00:36:51;;;;;;;0.20;0.17;;;;;;;-1.30;46.59;96173.75;5136205;27;20411;-58
2022/03/12 00:39:21;;;;;;;0.20;0.20;;;;;;;-1.26;46.57;96161.19;5135509;27;20822;-56
2022/03/12 00:41:49;;;;;;;0.20;0.17;;;;;;;-1.60;46.39;96173.81;5136046;27;21017;-57
2022/03/12 00:44:19;;;;;;;0.20;0.20;;;;;;;-1.03;45.99;96167.16;5135546;27;20427;-57
2022/03/12 00:46:48;;;;;;;0.20;0.20;;;;;;;-1.07;46.63;96171.13;5135557;27;20522;-57
2022/03/12 00:49:16;;;;;;;0.20;0.20;;;;;;;-0.97;46.07;96169.06;5135377;27;20506;-57
2022/03/12 00:51:45;;;;;;;0.20;0.10;;;;;;;-1.07;46.09;96175.50;5135484;27;20430;-58
2022/03/12 00:54:15;;;;;;;0.20;0.20;;;;;;;-1.06;45.82;96169.34;5135578;27;20464;-58
2022/03/12 00:56:44;;;;;;;0.20;0.20;;;;;;;-0.96;46.59;96170.69;5135895;27;20445;-56
2022/03/12 00:59:13;;;;;;;0.20;0.20;;;;;;;-0.91;46.17;96165.75;5135533;27;20426;-57
2022/03/12 01:01:41;;;;;;;0.20;0.20;;;;;;;-0.89;45.78;96169.00;5135612;27;20415;-57
2022/03/12 01:04:12;;;;;;;0.20;0.20;;;;;;;-0.60;45.49;96173.41;5135350;27;20466;-56
2022/03/12 01:06:42;;;;;;;0.20;0.20;;;;;;;-1.41;45.52;96044.16;5135538;27;20549;-57
2022/03/12 01:09:11;;;;;;;0.20;0.20;;;;;;;-0.84;45.19;96171.88;5135387;27;20422;-57
2022/03/12 01:11:42;;;;;;;0.20;0.20;;;;;;;-1.03;45.82;96174.16;5135170;27;20501;-57
2022/03/12 01:14:10;;;;;;;0.20;0.20;;;;;;;-1.13;45.95;96165.78;5135055;27;20509;-56
2022/03/12 01:16:39;;;;;;;0.30;0.30;;;;;;;-1.11;45.71;96154.22;5135263;27;20427;-56
2022/03/12 01:19:07;;;;;;;0.20;0.20;;;;;;;-1.27;45.80;96149.19;5134670;27;20419;-57
2022/03/12 01:21:36;;;;;;;0.20;0.20;;;;;;;-1.55;46.69;96155.91;5135217;27;20881;-57
2022/03/12 01:24:05;;;;;;;0.20;0.20;;;;;;;-1.35;46.92;96154.44;5134754;27;20462;-57
2022/03/12 01:26:34;;;;;;;0.20;0.20;;;;;;;-1.23;46.46;96160.03;5135116;27;20411;-57
2022/03/12 01:29:07;;;;;;;0.30;0.30;;;;;;;-1.53;46.72;96154.75;5134775;27;20455;-57
2022/03/12 01:31:36;;;;;;;0.30;0.20;;;;;;;-1.30;46.16;96163.34;5135067;27;20431;-57
2022/03/12 01:34:05;;;;;;;0.30;0.20;;;;;;;-1.66;47.21;96154.53;5134961;27;20423;-56
2022/03/12 01:36:34;;;;;;;0.20;0.20;;;;;;;-1.68;46.83;96156.50;5134580;27;20434;-57
2022/03/12 01:39:02;;;;;;;0.20;0.20;;;;;;;-1.29;46.18;96159.75;5134435;27;20522;-57
2022/03/12 01:41:33;;;;;;;0.30;0.20;;;;;;;-1.40;46.52;96162.78;5133930;27;20541;-57
2022/03/12 01:44:05;;;;;;;0.20;0.20;;;;;;;-1.47;45.50;96158.47;5134691;27;20477;-57
2022/03/12 01:46:35;;;;;;;0.20;0.20;;;;;;;-1.75;45.90;96139.16;5134272;27;20530;-56
2022/03/12 01:49:11;;;;;;;0.20;0.20;;;;;;;-1.78;46.74;96165.50;5134601;27;20435;-57
2022/03/12 01:51:42;;;;;;;0.20;0.10;;;;;;;-1.61;46.58;96157.41;5134261;27;20422;-56
2022/03/12 01:54:10;;;;;;;0.40;0.40;;;;;;;-1.06;45.70;96162.31;5134412;27;20431;-57
2022/03/12 01:56:39;;;;;;;0.20;0.20;;;;;;;-1.22;45.43;96156.47;5134244;27;20852;-56
2022/03/12 01:59:09;;;;;;;0.20;0.10;;;;;;;-1.40;46.20;96165.38;5134022;27;20518;-56
2022/03/12 02:01:37;;;;;;;0.20;0.20;;;;;;;-1.56;46.87;96154.28;5134157;27;20967;-56
2022/03/12 02:04:08;;;;;;;0.20;0.20;;;;;;;-2.26;46.89;96161.38;5134179;27;20451;-56
2022/03/12 02:06:42;;;;;;;0.20;0.20;;;;;;;-2.36;47.13;96164.19;5133360;27;20517;-56
2022/03/12 02:09:14;;;;;;;0.20;0.10;;;;;;;-2.51;48.22;96163.25;5133777;27;20548;-56
2022/03/12 02:11:45;;;;;;;0.20;0.10;;;;;;;-2.44;47.87;96159.00;5133831;27;20418;-56
2022/03/12 02:14:17;;;;;;;0.20;0.20;;;;;;;-2.27;47.67;96163.16;5133784;27;20422;-56
2022/03/12 02:16:49;;;;;;;0.20;0.20;;;;;;;-2.19;47.24;96162.31;5133740;27;20982;-56
2022/03/12 02:19:19;;;;;;;0.30;0.20;;;;;;;-2.48;47.82;96165.53;5133632;27;20427;-56
2022/03/12 02:21:52;;;;;;;0.80;0.80;;;;;;;-2.56;47.86;96168.16;5134234;27;20459;-56
2022/03/12 02:24:23;;;;;;;0.20;0.17;;;;;;;-2.99;47.98;96094.19;5133478;27;20495;-55
2022/03/12 02:26:53;;;;;;;0.50;0.50;;;;;;;-2.22;47.83;96167.81;5133642;27;20423;-56
2022/03/12 02:29:23;;;;;;;0.20;0.10;;;;;;;-2.16;47.02;96164.56;5132543;27;20516;-56
2022/03/12 02:31:54;;;;;;;0.20;0.20;;;;;;;-2.33;47.96;96166.44;5133435;27;20445;-56
2022/03/12 02:34:27;;;;;;;0.20;0.20;;;;;;;-2.40;47.27;96170.66;5133424;27;21043;-56
2022/03/12 02:36:57;;;;;;;2.73;2.40;;;;;;;-2.64;47.95;96175.94;5133626;27;20501;-56
2022/03/12 02:39:27;;;;;;;0.20;0.20;;;;;;;-2.52;48.66;96181.56;5133304;27;21008;-56
2022/03/12 02:41:57;;;;;;;0.20;0.20;;;;;;;-2.54;47.86;96181.75;5133575;27;20446;-55
2022/03/12 02:44:28;;;;;;;0.20;0.20;;;;;;;-2.18;47.30;96176.91;5133473;27;20439;-55
2022/03/12 02:47:14;;;;;;;0.20;0.20;;;;;;;-2.21;47.41;96166.88;5133245;27;20841;-55
2022/03/12 02:49:47;;;;;;;0.20;0.20;;;;;;;-1.98;47.03;96186.72;5133288;27;20426;-55
2022/03/12 02:52:17;;;;;;;0.47;0.47;;;;;;;-2.37;46.95;96185.09;5133432;27;20462;-56
2022/03/12 02:54:48;;;;;;;0.20;0.17;;;;;;;-2.85;47.78;96186.84;5133134;27;20430;-55
2022/03/12 02:57:18;;;;;;;0.20;0.20;;;;;;;-2.26;46.44;96176.94;5133337;27;20454;-55
2022/03/12 02:59:50;;;;;;;0.80;0.80;;;;;;;-2.41;46.65;96191.59;5132821;27;20510;-55
2022/03/12 03:02:38;;;;;;;0.20;0.20;;;;;;;-2.06;45.59;96185.94;5133378;27;20423;-55
2022/03/12 03:05:13;;;;;;;0.20;0.20;;;;;;;-2.52;46.27;96184.16;5133316;27;20507;-56
2022/03/12 03:07:45;;;;;;;0.20;0.20;;;;;;;-1.80;44.85;96183.84;5132697;27;20538;-56
2022/03/12 03:10:30;;;;;;;0.50;0.50;;;;;;;-1.44;45.02;96166.69;5132978;27;20942;-56
2022/03/12 03:12:59;;;;;;;0.20;0.20;;;;;;;-1.67;45.34;96184.06;5132988;27;20423;-56
2022/03/12 03:15:27;;;;;;;0.20;0.20;;;;;;;-1.77;46.23;96183.50;5132854;27;20411;-56
2022/03/12 03:18:10;;;;;;;0.20;0.20;;;;;;;-1.79;45.69;96185.47;5132778;27;20438;-56
2022/03/12 03:20:38;;;;;;;0.20;0.20;;;;;;;-1.96;46.99;96179.56;5133409;27;20857;-56
2022/03/12 03:23:08;;;;;;;0.20;0.20;;;;;;;-1.86;46.27;96179.34;5132741;28;20910;-56
2022/03/12 03:25:39;;;;;;;0.20;0.20;;;;;;;-1.61;48.34;96152.22;5132957;28;20427;-56
2022/03/12 03:28:09;;;;;;;0.20;0.10;;;;;;;-1.40;46.90;96180.97;5132724;27;20501;-56
2022/03/12 03:30:39;;;;;;;0.20;0.20;;;;;;;-1.97;46.55;96177.13;5132717;28;20445;-56
2022/03/12 03:33:09;;;;;;;0.30;0.20;;;;;;;-1.98;47.56;96170.31;5132689;28;20517;-56
2022/03/12 03:35:39;;;;;;;0.20;0.10;;;;;;;-2.24;48.59;96181.00;5132874;28;20422;-56
2022/03/12 03:38:07;;;;;;;0.20;0.20;;;;;;;-2.31;47.60;96184.44;5132911;28;20458;-56
2022/03/12 03:40:38;;;;;;;0.20;0.10;;;;;;;-2.21;47.05;96169.47;5134088;27;20855;-56
2022/03/12 03:43:09;;;;;;;0.20;0.10;;;;;;;-2.75;47.76;96181.47;5137237;27;20509;-56
2022/03/12 03:45:38;;;;;;;0.20;0.20;;;;;;;-2.49;47.50;96186.44;5136339;27;20462;-56
2022/03/12 03:48:12;;;;;;;0.20;0.13;;;;;;;-2.51;47.28;96188.41;5136927;27;20470;-56
2022/03/12 03:50:42;;;;;;;0.20;0.10;;;;;;;-2.85;48.02;96188.63;5136429;27;20424;-56
2022/03/12 03:53:13;;;;;;;0.20;0.10;;;;;;;-2.80;47.96;96187.16;5136675;27;20483;-56
2022/03/12 03:55:44;;;;;;;0.20;0.20;;;;;;;-2.62;47.30;96190.38;5136756;27;20474;-56
2022/03/12 03:58:13;;;;;;;0.20;0.20;;;;;;;-2.86;47.77;96185.22;5136804;27;20418;-56
2022/03/12 04:00:52;;;;;;;0.30;0.30;;;;;;;-2.59;47.80;96191.81;5136790;27;20513;-56
2022/03/12 04:03:22;;;;;;;1.07;1.07;;;;;;;-2.40;46.94;96191.44;5136517;27;20465;-56
2022/03/12 04:05:52;;;;;;;0.20;0.20;;;;;;;-2.18;46.74;96200.28;5136702;27;20446;-56
2022/03/12 04:08:21;;;;;;;0.20;0.20;;;;;;;-2.16;45.41;96203.50;5136138;27;21028;-56
2022/03/12 04:10:50;;;;;;;0.20;0.20;;;;;;;-2.80;46.72;96202.72;5136223;27;20517;-56
2022/03/12 04:13:20;;;;;;;0.20;0.20;;;;;;;-2.53;47.42;96211.13;5136459;27;20414;-56
2022/03/12 04:15:51;;;;;;;0.20;0.10;;;;;;;-2.24;46.91;96206.13;5136883;27;20443;-56
2022/03/12 04:18:21;;;;;;;0.30;0.20;;;;;;;-2.07;45.79;96218.06;5136061;27;20470;-56
2022/03/12 04:20:51;;;;;;;0.20;0.20;;;;;;;-1.97;45.48;96213.47;5136400;27;20810;-56
2022/03/12 04:23:21;;;;;;;0.20;0.10;;;;;;;-2.88;46.43;96223.50;5136018;27;20895;-56
2022/03/12 04:25:55;;;;;;;0.20;0.10;;;;;;;-3.34;47.04;96149.03;5136030;27;20464;-57
2022/03/12 04:28:26;;;;;;;0.20;0.20;;;;;;;-3.24;47.15;96223.03;5136289;27;20472;-56
2022/03/12 04:30:55;;;;;;;0.20;0.20;;;;;;;-3.64;48.82;96209.25;5135934;27;20517;-56
2022/03/12 04:33:23;;;;;;;0.40;0.40;;;;;;;-3.42;49.18;96226.75;5135953;27;20479;-56
2022/03/12 04:35:52;;;;;;;0.20;0.20;;;;;;;-3.46;48.66;96228.03;5135900;27;20457;-56
2022/03/12 04:38:20;;;;;;;0.80;0.80;;;;;;;-3.82;49.65;96237.88;5135940;27;20443;-56
2022/03/12 04:40:50;;;;;;;0.20;0.20;;;;;;;-3.70;50.00;96235.78;5136100;27;20472;-55
2022/03/12 04:43:19;;;;;;;0.20;0.20;;;;;;;-3.55;49.77;96234.19;5135801;27;20422;-55
2022/03/12 04:45:49;;;;;;;0.30;0.20;;;;;;;-4.06;50.41;96204.94;5135591;27;20465;-55
2022/03/12 04:48:20;;;;;;;0.50;0.50;;;;;;;-3.52;48.86;96246.84;5134936;27;20446;-56
2022/03/12 04:50:49;;;;;;;0.57;0.57;;;;;;;-3.39;48.88;96247.97;5135893;27;20415;-57
2022/03/12 04:53:19;;;;;;;0.20;0.20;;;;;;;-3.58;48.39;96239.69;5135060;27;20423;-56
2022/03/12 04:55:48;;;;;;;0.20;0.20;;;;;;;-3.43;48.52;96244.09;5135494;27;20434;-56
2022/03/12 04:58:19;;;;;;;0.20;0.20;;;;;;;-3.20;47.92;96252.03;5135760;27;20437;-57
2022/03/12 05:00:48;;;;;;;0.20;0.20;;;;;;;-2.89;47.63;96247.00;5134573;27;20477;-56
2022/03/12 05:03:19;;;;;;;0.83;0.83;;;;;;;-2.76;47.00;96245.53;5135352;27;20430;-56
2022/03/12 05:05:49;;;;;;;0.20;0.20;;;;;;;-2.89;46.37;96240.06;5135374;27;20421;-56
2022/03/12 05:08:20;;;;;;;0.20;0.17;;;;;;;-2.47;46.19;96238.97;5135409;27;20545;-56
2022/03/12 05:10:51;;;;;;;0.20;0.20;;;;;;;-3.02;45.86;96190.47;5135455;27;20455;-56
2022/03/12 05:13:23;;;;;;;0.20;0.20;;;;;;;-2.65;46.83;96226.22;5135188;27;20915;-56
2022/03/12 05:15:53;;;;;;;0.20;0.20;;;;;;;-3.08;47.60;96242.16;5135074;27;20498;-56
2022/03/12 05:18:23;;;;;;;0.20;0.20;;;;;;;-3.33;48.47;96243.94;5135793;27;20430;-56
2022/03/12 05:20:52;;;;;;;0.20;0.20;;;;;;;-2.89;47.92;96239.22;5134646;27;20925;-56
2022/03/12 05:23:21;;;;;;;0.30;0.20;;;;;;;-2.69;47.32;96246.50;5134834;27;20454;-56
2022/03/12 05:25:51;;;;;;;0.20;0.20;;;;;;;-3.14;48.47;96243.63;5135601;27;20419;-56
2022/03/12 05:28:25;;;;;;;0.20;0.20;;;;;;;-3.27;47.89;96245.88;5134997;27;20472;-57
2022/03/12 05:30:58;;;;;;;0.20;0.10;;;;;;;-3.28;48.46;96219.16;5134698;27;20478;-55
2022/03/12 05:33:27;;;;;;;0.20;0.20;;;;;;;-2.65;47.25;96252.97;5135268;27;20862;-57
2022/03/12 05:35:58;;;;;;;0.30;0.20;;;;;;;-2.09;45.67;96251.19;5134575;27;20453;-55
2022/03/12 05:38:31;;;;;;;0.30;0.30;;;;;;;-1.95;44.93;96253.88;5134600;27;20863;-55
2022/03/12 05:41:00;;;;;;;0.20;0.13;;;;;;;-1.89;44.50;96249.81;5134977;27;20845;-55
2022/03/12 05:43:30;;;;;;;0.20;0.20;;;;;;;-1.59;44.28;96251.59;5134342;27;20450;-55
2022/03/12 05:45:59;;;;;;;1.37;1.13;;;;;;;-1.52;44.11;96260.34;5134524;27;20501;-55
2022/03/12 05:48:28;;;;;;;0.20;0.13;;;;;;;-1.44;43.80;96264.69;5134454;27;20897;-55
2022/03/12 05:50:58;;;;;;;0.20;0.10;;;;;;;-1.48;43.58;96258.22;5134193;27;21072;-56
2022/03/12 05:53:30;;;;;;;0.20;0.20;;;;;;;-1.11;42.79;96260.88;5134880;27;20459;-56
2022/03/12 05:55:58;;;;;;;0.20;0.20;;;;;;;-0.92;43.80;96244.00;5135030;27;20426;-56
2022/03/12 05:58:27;;;;;;;0.20;0.20;;;;;;;-1.52;43.53;96260.34;5134197;27;20514;-56
2022/03/12 06:00:57;;;;;;;0.30;0.30;;;;;;;-1.68;44.19;96273.44;5134071;27;20435;-56
2022/03/12 06:03:25;;;;;;;0.20;0.20;;;;;;;-1.57;43.28;96270.44;5134192;27;20891;-56
2022/03/12 06:05:55;;;;;;;0.20;0.20;;;;;;;-1.02;42.98;96277.25;5133992;27;20454;-56
2022/03/12 06:08:24;;;;;;;0.93;0.93;;;;;;;-0.11;41.33;96270.06;5132917;27;20466;-57
2022/03/12 06:10:55;;;;;;;0.30;0.30;;;;;;;-0.04;40.19;96278.78;5134261;27;20858;-56
2022/03/12 06:13:29;;;;;;;0.20;0.20;;;;;;;0.25;40.58;96285.78;5133320;27;20430;-56
2022/03/12 06:16:00;;;;;;;0.37;0.33;;;;;;;1.28;38.56;96277.47;5133975;27;20927;-56
2022/03/12 06:18:33;;;;;;;0.30;0.30;;;;;;;1.22;38.14;96278.19;5133802;27;20914;-56
2022/03/12 06:21:02;;;;;;;0.20;0.20;;;;;;;2.26;36.33;96277.28;5133514;27;20919;-56
2022/03/12 06:23:30;;;;;;;0.20;0.20;;;;;;;1.90;36.75;96274.06;5133815;27;20470;-55
2022/03/12 06:26:02;;;;;;;0.20;0.20;;;;;;;2.83;35.17;96279.53;5134146;27;20422;-56
2022/03/12 06:28:32;;;;;;;0.20;0.20;;;;;;;2.77;37.52;96274.28;5134058;27;20855;-56
2022/03/12 06:31:02;;;;;;;0.20;0.20;;;;;;;3.01;35.91;96278.97;5133806;27;20556;-56
2022/03/12 06:33:31;;;;;;;0.20;0.20;;;;;;;3.45;34.96;96273.97;5133719;27;20480;-54
2022/03/12 06:36:01;;;;;;;0.40;0.40;;;;;;;3.65;34.16;96218.94;5133627;27;20514;-56
2022/03/12 06:38:30;;;;;;;0.30;0.27;;;;;;;4.06;33.25;96269.28;5133458;27;20491;-57
2022/03/12 06:40:58;;;;;;;0.30;0.20;;;;;;;3.96;33.35;96276.78;5133419;27;20954;-57
2022/03/12 06:43:28;;;;;;;1.17;1.07;;;;;;;4.00;33.71;96264.06;5133777;27;20415;-57
2022/03/12 06:45:58;;;;;;;0.63;0.63;;;;;;;3.77;34.27;96281.03;5133315;27;20430;-56
2022/03/12 06:48:29;;;;;;;0.30;0.20;;;;;;;4.27;33.03;96276.09;5133283;27;20911;-56
2022/03/12 06:50:58;;;;;;;0.73;0.40;;;;;;;4.16;33.21;96284.59;5133561;27;20505;-56
2022/03/12 06:53:27;;;;;;;0.30;0.30;;;;;;;3.73;34.04;96282.44;5133518;27;20475;-56
2022/03/12 06:55:56;;;;;;;0.30;0.20;;;;;;;4.59;33.43;96264.69;5133231;27;20509;-55
2022/03/12 06:58:24;;;;;;;1.63;1.53;;;;;;;4.87;32.55;96259.09;5133478;27;20513;-55
2022/03/12 07:00:53;;;;;;;2.43;2.33;;;;;;;5.51;31.86;96261.50;5133347;27;20931;-55
2022/03/12 07:03:21;;;;;;;0.40;0.37;;;;;;;6.31;31.41;96253.47;5133090;27;20967;-54
2022/03/12 07:05:52;;;;;;;0.40;0.30;;;;;;;7.14;30.57;96248.38;5132931;27;20419;-54
2022/03/12 07:08:20;;;;;;;0.93;0.93;;;;;;;7.07;30.88;96257.41;5132857;27;20534;-54
2022/03/12 07:10:50;;;;;;;0.63;0.63;;;;;;;6.31;29.89;96253.47;5132911;27;20510;-53
2022/03/12 07:13:18;;;;;;;0.30;0.20;;;;;;;6.78;29.05;96254.53;5132982;27;20443;-54
2022/03/12 07:15:47;;;;;;;0.30;0.20;;;;;;;6.64;29.66;96173.25;5132240;27;20470;-55
2022/03/12 07:18:18;;;;;;;0.50;0.50;;;;;;;6.77;29.33;96244.22;5133420;27;20421;-52
2022/03/12 07:20:47;;;;;;;0.30;0.20;;;;;;;6.49;29.83;96249.22;5132842;27;20476;-54
2022/03/12 07:23:17;;;;;;;0.30;0.20;;;;;;;6.41;28.86;96247.69;5133096;28;20842;-52
2022/03/12 07:25:45;;;;;;;0.50;0.47;;;;;;;6.77;28.01;96236.31;5132814;28;20434;-53
2022/03/12 07:28:17;;;;;;;0.40;0.30;;;;;;;6.60;28.42;96240.59;5132766;28;20534;-53
2022/03/12 07:30:45;;;;;;;0.40;0.30;;;;;;;7.41;27.79;96236.38;5132969;27;20468;-54
2022/03/12 07:33:14;;;;;;;0.30;0.20;;;;;;;8.11;26.56;96236.44;5132665;28;20458;-53
2022/03/12 07:35:43;;;;;;;0.30;0.20;;;;;;;8.89;25.97;96237.56;5132815;28;20484;-54
2022/03/12 07:38:11;;;;;;;0.30;0.20;;;;;;;8.32;26.05;96236.66;5132096;28;20476;-55
2022/03/12 07:40:41;;;;;;;0.30;0.20;;;;;;;6.98;28.40;96222.66;5133082;28;21040;-54
2022/03/12 07:43:10;;;;;;;2.00;0.77;;;;;;;7.78;27.71;96234.38;5132915;28;20546;-53
2022/03/12 07:45:39;;;;;;;0.50;0.40;;;;;;;7.46;26.70;96236.50;5132810;28;20487;-52
2022/03/12 07:48:08;;;;;;;0.60;0.50;;;;;;;7.79;26.79;96232.56;5132572;27;20926;-54
2022/03/12 07:50:56;;;;;;;5.20;0.50;;;;;;;7.63;25.90;96232.22;5132233;28;20973;-55
2022/03/12 07:53:25;;;;;;;0.40;0.40;;;;;;;6.64;27.67;96231.22;5132081;28;20510;-56
2022/03/12 07:55:55;;;;;;;0.30;0.30;;;;;;;6.69;27.04;96226.09;5133572;28;20923;-56
2022/03/12 07:58:23;;;;;;;0.50;0.30;;;;;;;8.47;25.83;96222.19;5132643;28;20987;-57
2022/03/12 08:00:54;;;;;;;0.40;0.30;;;;;;;8.02;24.43;96230.69;5132557;27;20513;-58
2022/03/12 08:03:24;;;;;;;0.53;0.53;;;;;;;8.56;24.66;96221.56;5132781;28;20434;-59
2022/03/12 08:05:52;;;;;;;0.63;0.63;;;;;;;6.85;25.37;96234.19;5132373;28;20969;-58
2022/03/12 08:08:21;;;;;;;1.07;0.53;;;;;;;8.27;25.50;96218.06;5132157;28;20466;-60
2022/03/12 08:13:37;;;;;;;0.40;0.30;;;;;;;8.86;24.09;96232.75;5132182;28;20418;-61
2022/03/12 08:16:06;;;;;;;0.50;0.50;;;;;;;8.68;24.62;96219.69;5132509;28;20426;-61
2022/03/12 08:18:34;;;;;;;0.30;0.30;;;;;;;7.64;24.70;96228.50;5132760;28;20506;-61
2022/03/12 08:21:02;;;;;;;0.40;0.40;;;;;;;7.97;24.46;96222.66;5132443;28;20449;-64
2022/03/12 08:23:31;;;;;;;0.40;0.30;;;;;;;7.89;24.60;96230.16;5132288;28;20469;-64
2022/03/12 08:26:02;;;;;;;0.43;0.43;;;;;;;8.43;25.35;96244.81;5133359;28;20502;-64
2022/03/12 08:28:32;;;;;;;0.60;0.50;;;;;;;8.93;24.99;96225.47;5135036;27;20467;-63
2022/03/12 08:31:02;;;;;;;0.40;0.40;;;;;;;8.71;24.45;96229.00;5136091;27;20462;-64
2022/03/12 08:33:31;;;;;;;0.40;0.30;;;;;;;9.38;23.60;96224.69;5136012;27;20411;-63
2022/03/12 08:36:02;;;;;;;0.40;0.30;;;;;;;9.88;23.79;96230.78;5135869;27;20479;-63
2022/03/12 08:38:30;;;;;;;0.50;0.50;;;;;;;10.34;23.61;96213.72;5135725;27;20483;-63
2022/03/12 08:40:59;;;;;;;0.30;0.30;;;;;;;8.77;26.12;96152.22;5135869;27;20472;-63
2022/03/12 08:43:28;;;;;;;0.30;0.20;;;;;;;9.52;23.21;96213.53;5136069;27;20829;-64
2022/03/12 08:45:56;;;;;;;0.77;0.77;;;;;;;9.08;23.50;96229.44;5135974;27;20423;-64
2022/03/12 08:48:26;;;;;;;0.40;0.30;;;;;;;9.83;25.19;96230.69;5135557;27;20511;-63
2022/03/12 08:50:54;;;;;;;0.80;0.80;;;;;;;9.22;22.71;96225.44;5135450;27;20458;-63
2022/03/12 08:53:28;;;;;;;0.60;0.50;;;;;;;9.85;22.74;96217.22;5135457;27;20890;-63
2022/03/12 08:55:57;;;;;;;9.20;0.70;;;;;;;10.01;22.48;96221.69;5135344;27;20438;-61
2022/03/12 08:58:25;;;;;;;0.50;0.50;;;;;;;10.48;22.09;96214.13;5135559;27;20453;-61
2022/03/12 09:00:54;;;;;;;0.40;0.30;;;;;;;10.50;20.48;96210.19;5135789;27;20442;-61
2022/03/12 09:03:23;;;;;;;1.00;0.97;;;;;;;10.63;20.92;96203.72;5135735;27;20431;-61
2022/03/12 09:05:54;;;;;;;0.50;0.50;;;;;;;9.51;22.62;96217.22;5135438;27;20480;-62
2022/03/12 09:08:22;;;;;;;0.40;0.30;;;;;;;9.84;23.71;96205.03;5135074;27;20527;-60
2022/03/12 09:10:51;;;;;;;0.90;0.70;;;;;;;10.45;21.63;96209.34;5135358;27;20502;-60
2022/03/12 09:13:19;;;;;;;0.50;0.40;;;;;;;9.21;21.72;96200.84;5135221;27;20484;-61
2022/03/12 09:15:48;;;;;;;0.40;0.30;;;;;;;10.53;22.06;96214.19;5135804;27;20486;-61
2022/03/12 09:18:16;;;;;;;4.33;0.80;;;;;;;10.01;23.25;96213.75;5135391;27;20427;-60
2022/03/12 09:20:46;;;;;;;0.60;0.60;;;;;;;9.68;21.96;96203.19;5135101;27;20926;-60
2022/03/12 09:23:17;;;;;;;0.40;0.30;;;;;;;8.35;21.85;96197.63;5135129;27;20434;-60
2022/03/12 09:25:47;;;;;;;0.40;0.37;;;;;;;9.17;24.26;96202.38;5135011;27;20462;-59
2022/03/12 09:28:16;;;;;;;0.30;0.20;;;;;;;8.96;22.50;96200.38;5134952;27;20422;-60
2022/03/12 09:30:45;;;;;;;0.30;0.23;;;;;;;10.08;22.28;96198.47;5135141;27;20450;-59
2022/03/12 09:33:13;;;;;;;0.50;0.30;;;;;;;10.38;20.18;96190.97;5134842;27;20962;-61
2022/03/12 09:35:42;;;;;;;0.30;0.20;;;;;;;10.66;22.21;96198.72;5134525;27;20475;-60
2022/03/12 09:38:10;;;;;;;0.60;0.40;;;;;;;9.65;21.54;96199.19;5135068;27;20523;-60
2022/03/12 09:40:40;;;;;;;0.70;0.57;;;;;;;8.67;21.11;96204.91;5135056;27;20425;-60
2022/03/12 09:43:10;;;;;;;1.13;1.13;;;;;;;9.02;21.86;96199.44;5135019;27;20427;-61
2022/03/12 09:45:39;;;;;;;0.40;0.37;;;;;;;7.60;21.89;96206.28;5134581;27;20457;-60
2022/03/12 09:48:09;;;;;;;0.50;0.43;;;;;;;9.69;21.33;96199.50;5134819;27;20865;-59
2022/03/12 09:50:37;;;;;;;4.00;2.73;;;;;;;11.24;20.55;96186.56;5134974;27;20415;-59
2022/03/12 09:53:06;;;;;;;1.13;1.07;;;;;;;11.13;21.93;96200.81;5134370;27;20496;-59
2022/03/12 09:55:35;;;;;;;0.30;0.30;;;;;;;12.02;19.91;96194.66;5134571;27;20521;-59
2022/03/12 09:58:05;;;;;;;0.30;0.20;;;;;;;10.90;20.33;96188.66;5134119;27;20875;-59
2022/03/12 10:00:34;;;;;;;0.40;0.37;;;;;;;11.17;21.03;96205.38;5136153;27;20431;-59
2022/03/12 10:03:05;;;;;;;0.37;0.30;;;;;;;12.54;20.54;96185.88;5136929;27;20434;-60
2022/03/12 10:05:34;;;;;;;0.30;0.20;;;;;;;11.81;20.98;96120.41;5137635;27;20926;-58
2022/03/12 10:08:03;;;;;;;0.30;0.30;;;;;;;9.94;20.10;96195.38;5136390;27;20569;-60
2022/03/12 10:10:33;;;;;;;0.83;0.63;;;;;;;10.67;21.11;96195.03;5136246;27;20479;-59
2022/03/12 10:13:03;;;;;;;0.60;0.60;;;;;;;11.78;19.13;96087.19;5138312;27;20496;-59
2022/03/12 10:15:33;;;;;;;0.40;0.40;;;;;;;14.63;17.68;96171.28;5138756;27;20429;-58
2022/03/12 10:18:02;;;;;;;0.67;0.57;;;;;;;13.92;18.28;96179.44;5138428;27;20435;-60
2022/03/12 10:20:31;;;;;;;0.30;0.20;;;;;;;12.14;19.67;96170.56;5137709;27;20462;-60
2022/03/12 10:23:02;;;;;;;0.73;0.73;;;;;;;9.32;20.98;96185.94;5138439;27;20429;-60
2022/03/12 10:25:31;;;;;;;0.43;0.40;;;;;;;9.93;20.94;96180.53;5138805;27;20956;-60
2022/03/12 10:28:01;;;;;;;0.30;0.30;;;;;;;10.92;20.26;96204.31;5139134;27;20419;-59
2022/03/12 10:30:30;;;;;;;0.50;0.30;;;;;;;11.61;20.44;96192.75;5138241;27;20437;-60
2022/03/12 10:33:01;;;;;;;0.30;0.20;;;;;;;12.35;17.77;96187.38;5138219;27;20470;-60
2022/03/12 10:35:34;;;;;;;1.73;0.30;;;;;;;12.04;20.04;96183.78;5137158;27;20441;-59
2022/03/12 10:38:04;;;;;;;0.30;0.30;;;;;;;12.11;18.79;96187.00;5134275;27;20426;-59
2022/03/12 10:40:33;;;;;;;0.50;0.37;;;;;;;13.38;19.03;96163.22;5133643;27;20430;-59
2022/03/12 10:43:12;;;;;;;0.40;0.30;;;;;;;13.46;17.84;96182.41;5136357;27;20834;-58
2022/03/12 10:45:43;;;;;;;0.40;0.30;;;;;;;12.21;17.90;96179.09;5136537;27;20879;-60
2022/03/12 10:48:13;;;;;;;0.33;0.30;;;;;;;14.05;18.64;96164.75;5135793;27;20922;-59
2022/03/12 10:50:45;;;;;;;0.47;0.40;;;;;;;14.93;18.65;96167.66;5134458;27;20427;-59
2022/03/12 10:53:15;;;;;;;0.97;0.40;;;;;;;15.09;17.36;96147.81;5133119;27;20486;-58
2022/03/12 10:55:45;;;;;;;0.53;0.53;;;;;;;12.31;17.89;96159.72;5132504;27;20479;-59
2022/03/12 10:58:15;;;;;;;2.00;0.33;;;;;;;12.01;19.93;96158.53;5133121;27;20473;-59
2022/03/12 11:00:48;;;;;;;0.60;0.60;;;;;;;11.01;19.33;96179.72;5133224;27;20426;-59
2022/03/12 11:03:20;;;;;;;0.30;0.20;;;;;;;11.63;23.35;96176.56;5133568;27;20473;-58
2022/03/12 11:05:51;;;;;;;1.93;0.40;;;;;;;12.58;19.37;96157.69;5133040;27;20902;-59
2022/03/12 11:08:22;;;;;;;0.40;0.30;;;;;;;12.62;18.39;96161.44;5132859;27;20513;-58
2022/03/12 11:10:57;;;;;;;0.50;0.30;;;;;;;12.85;18.48;96154.88;5134740;27;20521;-60
2022/03/12 11:13:40;;;;;;;0.40;0.30;;;;;;;12.75;17.39;96151.09;5136736;27;20470;-58
2022/03/12 11:16:16;;;;;;;0.80;0.80;;;;;;;14.28;15.40;96142.03;5136526;27;20474;-58
2022/03/12 11:19:07;;;;;;;0.40;0.30;;;;;;;12.87;16.18;96129.59;5136949;27;20426;-59
2022/03/12 11:21:40;;;;;;;0.40;0.30;;;;;;;13.41;16.40;96137.91;5136114;27;21051;-57
2022/03/12 11:24:15;;;;;;;0.40;0.40;;;;;;;13.60;17.57;96139.00;5134129;27;20940;-57
2022/03/12 11:26:48;;;;;;;0.40;0.40;;;;;;;10.50;20.34;96121.94;5133992;28;20802;-57
2022/03/12 11:29:19;;;;;;;0.73;0.50;;;;;;;8.87;20.79;96155.03;5136526;28;20471;-59
2022/03/12 11:31:50;;;;;;;0.60;0.60;;;;;;;8.96;21.40;96152.81;5136890;28;20858;-61
2022/03/12 11:34:23;;;;;;;3.13;0.60;;;;;;;10.87;21.18;96138.75;5135297;28;20419;-59
2022/03/12 11:37:12;;;;;;;0.50;0.50;;;;;;;12.42;17.79;96135.56;5136874;28;20441;-60
2022/03/12 11:39:42;;;;;;;0.40;0.30;;;;;;;11.53;17.45;96112.75;5136079;27;20425;-59
2022/03/12 11:42:15;;;;;;;1.27;0.70;;;;;;;11.64;18.59;96026.81;5137282;27;20460;-60
2022/03/12 11:44:46;;;;;;;0.60;0.57;;;;;;;12.61;19.62;96120.75;5132745;28;20414;-59
2022/03/12 11:47:15;;;;;;;0.93;0.60;;;;;;;13.37;18.90;96041.00;5133783;28;20484;-59
2022/03/12 11:49:46;;;;;;;0.50;0.40;;;;;;;14.99;21.10;96119.31;5133097;28;20838;-60
2022/03/12 11:52:16;;;;;;;0.40;0.30;;;;;;;13.74;18.24;96117.91;5133938;28;20419;-60
2022/03/12 11:54:46;;;;;;;0.33;0.27;;;;;;;13.66;18.00;96108.59;5133009;28;20446;-60